ROMMA est une association bénévole à but non lucratif. Votre soutien est indispensable : ADHERER à ROMMA ou FAIRE un DON

Nice - (06, Alpes-Maritimes)

Côte-d'Azur (190 m)   Longitude: 07° 14' E   Latitude: 43° 43' N Station partenaire n°136
 

Détail journalier du     <<     >>

Température Precipitation Humidité Pression Vent Dir Rafale Dir. rafale Ensol.
Heure (°C) (mm) (%) (hPa) (km/h) (km/h) (min)
01:00 15.707910123N15N0
02:00 15.607510122NE18NE0
03:00 15.207510122NE10N0
04:00 15.208110121---11NO0
05:00 14.907510126NNO21NNO0
06:00 15.408010124N13N0
07:00 14.808310123NNO8NNO0
08:00 15.107310135NNO16NO0
09:00 17.106810135NNO15NNO20
10:00 19.607110134N13NNE60
11:00 20.905310133NNE11ONO50
12:00 21.606510145SE15SSE60
13:00 21.806310149SE18SE60
14:00 20.806810139SE21SE60
15:00 20.207310139SSE19SE40
16:00 19.308010128SE18SE10
17:00 19.807510127SSE15SSE50
18:00 18.407810126SE16SE20
19:00 17.807810113SSE11SSE0
20:00 17.3081101200---0
21:00 16.8083101100---0
22:00 16.4085101100---0
23:00 16.3085101000---0
minuit 16.208610091---6NNO0

Graphique du 06-10-2019

 

Serveur OMMA